createdAt,value
2018-11-04T00:02:23.948Z,100677.37
2018-11-04T00:04:51.738Z,100674.47
2018-11-04T00:07:19.821Z,100671.80
2018-11-04T00:09:47.635Z,100668.56
2018-11-04T00:12:15.490Z,100661.31
2018-11-04T00:14:43.306Z,100659.34
2018-11-04T00:17:11.000Z,100655.19
2018-11-04T00:19:38.910Z,100659.95
2018-11-04T00:22:06.703Z,100654.63
2018-11-04T00:24:34.477Z,100657.80
2018-11-04T00:27:02.325Z,100653.84
2018-11-04T00:29:30.139Z,100655.63
2018-11-04T00:31:58.001Z,100664.64
2018-11-04T00:34:25.877Z,100659.32
2018-11-04T00:36:53.661Z,100659.32
2018-11-04T00:39:21.387Z,100658.08
2018-11-04T00:41:49.110Z,100659.79
2018-11-04T00:44:16.911Z,100661.50
2018-11-04T00:46:44.857Z,100644.27
2018-11-04T00:49:12.722Z,100642.69
2018-11-04T00:51:40.532Z,100643.84
2018-11-04T00:54:08.511Z,100639.89
2018-11-04T00:56:36.330Z,100637.03
2018-11-04T00:59:04.382Z,100640.73
2018-11-04T01:01:32.325Z,100632.14
2018-11-04T01:04:00.094Z,100634.27
2018-11-04T01:06:27.924Z,100636.22
2018-11-04T01:08:55.947Z,100628.80
2018-11-04T01:11:23.700Z,100625.81
2018-11-04T01:13:51.454Z,100623.61
2018-11-04T01:16:19.317Z,100623.55
2018-11-04T01:18:47.155Z,100621.27
2018-11-04T01:21:14.945Z,100614.80
2018-11-04T01:23:42.855Z,100607.82
2018-11-04T01:26:10.679Z,100610.25
2018-11-04T01:28:38.490Z,100609.35
2018-11-04T01:31:06.351Z,100606.41
2018-11-04T01:33:34.193Z,100605.51
2018-11-04T01:36:02.014Z,100603.11
2018-11-04T01:38:29.780Z,100596.25
2018-11-04T01:40:57.535Z,100593.15
2018-11-04T01:43:25.363Z,100593.41
2018-11-04T01:45:53.256Z,100586.33
2018-11-04T01:48:21.127Z,100585.51
2018-11-04T01:50:48.913Z,100587.30
2018-11-04T01:53:16.739Z,100581.78
2018-11-04T01:55:44.519Z,100589.91
2018-11-04T01:58:12.239Z,100584.69
2018-11-04T02:00:39.989Z,100577.86
2018-11-04T02:03:07.833Z,100569.98
2018-11-04T02:05:35.645Z,100568.70
2018-11-04T02:08:03.435Z,100552.53
2018-11-04T02:10:31.170Z,100552.42
2018-11-04T02:12:58.931Z,100550.39
2018-11-04T02:15:26.696Z,100549.42
2018-11-04T02:17:54.459Z,100538.44
2018-11-04T02:20:22.199Z,100535.33
2018-11-04T02:22:49.879Z,100542.11
2018-11-04T02:25:17.539Z,100535.05
2018-11-04T02:27:45.281Z,100538.30
2018-11-04T02:30:14.138Z,100529.20
2018-11-04T02:32:42.797Z,100518.55
2018-11-04T02:35:10.870Z,100516.44
2018-11-04T02:37:39.462Z,100505.65
2018-11-04T02:40:07.249Z,100503.95
2018-11-04T02:42:35.033Z,100506.71
2018-11-04T02:45:02.802Z,100506.95
2018-11-04T02:47:30.603Z,100504.48
2018-11-04T02:49:58.500Z,100500.74
2018-11-04T02:52:26.295Z,100504.11
2018-11-04T02:54:54.011Z,100497.91
2018-11-04T02:57:21.802Z,100502.52
2018-11-04T02:59:49.597Z,100509.13
2018-11-04T03:02:17.379Z,100501.33
2018-11-04T03:04:45.176Z,100498.48
2018-11-04T03:07:12.939Z,100499.52
2018-11-04T03:09:40.717Z,100495.27
2018-11-04T03:12:08.483Z,100494.03
2018-11-04T03:14:36.187Z,100488.91
2018-11-04T03:17:04.013Z,100484.59
2018-11-04T03:19:32.099Z,100479.67
2018-11-04T03:21:59.808Z,100485.67
2018-11-04T03:24:28.113Z,100470.81
2018-11-04T03:26:55.807Z,100477.61
2018-11-04T03:29:23.625Z,100471.14
2018-11-04T03:31:52.545Z,100466.78
2018-11-04T03:34:20.435Z,100464.16
2018-11-04T03:36:48.157Z,100464.63
2018-11-04T03:39:15.934Z,100460.54
2018-11-04T03:41:43.633Z,100461.98
2018-11-04T03:44:11.571Z,100455.41
2018-11-04T03:46:39.265Z,100443.69
2018-11-04T03:49:07.699Z,100443.69
2018-11-04T03:51:35.434Z,100448.70
2018-11-04T03:54:03.203Z,100445.00
2018-11-04T03:56:30.978Z,100445.27
2018-11-04T03:58:58.778Z,100442.74
2018-11-04T04:01:26.868Z,100441.16
2018-11-04T04:03:54.581Z,100435.67
2018-11-04T04:06:22.612Z,100428.34
2018-11-04T04:08:50.484Z,100424.15
2018-11-04T04:11:18.259Z,100424.04
2018-11-04T04:13:46.137Z,100418.57
2018-11-04T04:16:14.112Z,100410.31
2018-11-04T04:18:42.569Z,100417.73
2018-11-04T04:21:10.992Z,100413.91
2018-11-04T04:23:39.858Z,100413.06
2018-11-04T04:26:08.716Z,100410.55
2018-11-04T04:28:36.531Z,100410.44
2018-11-04T04:31:04.505Z,100407.59
2018-11-04T04:33:32.213Z,100404.70
2018-11-04T04:36:00.218Z,100410.54
2018-11-04T04:38:27.954Z,100402.78
2018-11-04T04:40:55.748Z,100407.53
2018-11-04T04:43:23.394Z,100402.53
2018-11-04T04:45:51.857Z,100397.84
2018-11-04T04:48:19.603Z,100396.06
2018-11-04T04:50:47.317Z,100396.53
2018-11-04T04:53:15.010Z,100388.16
2018-11-04T04:55:42.703Z,100387.33
2018-11-04T04:58:10.376Z,100384.12
2018-11-04T05:00:38.175Z,100386.53
2018-11-04T05:03:06.008Z,100379.11
2018-11-04T05:05:33.730Z,100367.13
2018-11-04T05:08:01.496Z,100370.01
2018-11-04T05:10:29.170Z,100363.28
2018-11-04T05:12:56.881Z,100356.01
2018-11-04T05:15:24.671Z,100356.23
2018-11-04T05:17:52.484Z,100350.97
2018-11-04T05:20:20.156Z,100351.48
2018-11-04T05:22:47.913Z,100356.85
2018-11-04T05:25:15.727Z,100354.91
2018-11-04T05:27:43.542Z,100350.97
2018-11-04T05:30:11.958Z,100349.55
2018-11-04T05:32:39.712Z,100348.59
2018-11-04T05:35:07.678Z,100354.47
2018-11-04T05:37:35.923Z,100357.95
2018-11-04T05:40:04.961Z,100360.69
2018-11-04T05:42:32.657Z,100362.23
2018-11-04T05:45:00.281Z,100367.96
2018-11-04T05:47:27.975Z,100366.90
2018-11-04T05:49:55.615Z,100358.53
2018-11-04T05:52:23.337Z,100366.64
2018-11-04T05:54:50.991Z,100368.06
2018-11-04T05:57:18.829Z,100369.05
2018-11-04T05:59:46.477Z,100366.42
2018-11-04T06:02:14.289Z,100369.39
2018-11-04T06:04:41.955Z,100372.53
2018-11-04T06:07:09.756Z,100370.48
2018-11-04T06:09:37.454Z,100371.07
2018-11-04T06:12:05.292Z,100382.11
2018-11-04T06:14:33.013Z,100379.81
2018-11-04T06:17:00.703Z,100375.41
2018-11-04T06:19:28.431Z,100381.16
2018-11-04T06:21:56.311Z,100377.54
2018-11-04T06:24:23.970Z,100373.12
2018-11-04T06:26:51.794Z,100371.47
2018-11-04T06:29:20.102Z,100375.27
2018-11-04T06:31:47.876Z,100379.36
2018-11-04T06:34:15.520Z,100383.06
2018-11-04T06:36:43.307Z,100384.01
2018-11-04T06:39:11.251Z,100383.31
2018-11-04T06:41:38.869Z,100379.84
2018-11-04T06:44:07.202Z,100378.52
2018-11-04T06:46:34.917Z,100376.61
2018-11-04T06:49:02.565Z,100385.08
2018-11-04T06:51:30.510Z,100381.39
2018-11-04T06:53:58.241Z,100382.22
2018-11-04T06:56:25.949Z,100376.33
2018-11-04T06:58:53.848Z,100381.09
2018-11-04T07:01:21.901Z,100377.50
2018-11-04T07:04:24.386Z,100379.20
2018-11-04T07:06:52.113Z,100372.63
2018-11-04T07:09:19.826Z,100370.72
2018-11-04T07:11:48.381Z,100369.61
2018-11-04T07:14:16.556Z,100368.92
2018-11-04T07:16:44.644Z,100370.47
2018-11-04T07:19:12.973Z,100366.62
2018-11-04T07:21:40.757Z,100360.03
2018-11-04T07:24:08.415Z,100367.64
2018-11-04T07:26:36.415Z,100367.89
2018-11-04T07:29:04.824Z,100370.99
2018-11-04T07:31:32.610Z,100365.70
2018-11-04T07:34:00.285Z,100371.09
2018-11-04T07:36:28.121Z,100364.00
2018-11-04T07:38:55.989Z,100366.76
2018-11-04T07:41:23.858Z,100362.66
2018-11-04T07:43:51.576Z,100364.31
2018-11-04T07:46:19.589Z,100359.06
2018-11-04T07:48:47.722Z,100357.21
2018-11-04T07:51:16.940Z,100357.03
2018-11-04T07:53:46.926Z,100347.73
2018-11-04T07:56:15.099Z,100354.25
2018-11-04T07:58:43.008Z,100353.60
2018-11-04T08:01:10.711Z,100357.84
2018-11-04T08:03:38.439Z,100358.45
2018-11-04T08:06:06.445Z,100356.01
2018-11-04T08:08:34.145Z,100359.23
2018-11-04T08:11:01.943Z,100360.99
2018-11-04T08:13:29.696Z,100358.98
2018-11-04T08:15:57.231Z,100358.84
2018-11-04T08:18:24.860Z,100354.00
2018-11-04T08:20:52.527Z,100357.92
2018-11-04T08:23:20.230Z,100348.28
2018-11-04T08:25:48.282Z,100346.43
2018-11-04T08:28:16.008Z,100343.65
2018-11-04T08:30:43.715Z,100341.42
2018-11-04T08:33:11.364Z,100346.56
2018-11-04T08:35:39.127Z,100340.37
2018-11-04T08:38:06.796Z,100344.64
2018-11-04T08:40:41.222Z,100340.00
2018-11-04T08:43:08.852Z,100339.34
2018-11-04T08:45:36.522Z,100335.84
2018-11-04T08:48:04.393Z,100331.46
2018-11-04T08:50:32.009Z,100312.34
2018-11-04T08:52:59.740Z,100314.15
2018-11-04T08:55:27.441Z,100312.27
2018-11-04T08:57:55.042Z,100306.16
2018-11-04T09:00:22.992Z,100308.52
2018-11-04T09:02:50.807Z,100309.55
2018-11-04T09:05:18.470Z,100299.36
2018-11-04T09:07:46.719Z,100301.89
2018-11-04T09:10:15.474Z,100302.73
2018-11-04T09:12:44.057Z,100303.81
2018-11-04T09:15:11.971Z,100292.45
2018-11-04T09:17:39.609Z,100291.58
2018-11-04T09:20:10.783Z,100287.26
2018-11-04T09:22:38.852Z,100292.59
2018-11-04T09:25:07.265Z,100291.00
2018-11-04T09:27:35.396Z,100297.70
2018-11-04T09:30:03.388Z,100299.98
2018-11-04T09:32:31.557Z,100302.77
2018-11-04T09:34:59.324Z,100296.66
2018-11-04T09:37:27.108Z,100295.69
2018-11-04T09:39:55.062Z,100279.59
2018-11-04T09:42:22.824Z,100289.33
2018-11-04T09:44:50.578Z,100288.48
2018-11-04T09:47:18.377Z,100287.77
2018-11-04T09:49:46.169Z,100286.02
2018-11-04T09:52:13.937Z,100279.02
2018-11-04T09:54:41.618Z,100274.94
2018-11-04T09:57:09.294Z,100269.78
2018-11-04T09:59:37.012Z,100265.03
2018-11-04T10:02:04.703Z,100269.81
2018-11-04T10:04:32.385Z,100264.47
2018-11-04T10:07:00.343Z,100262.77
2018-11-04T10:09:28.039Z,100267.40
2018-11-04T10:11:55.712Z,100257.02
2018-11-04T10:14:23.612Z,100250.14
2018-11-04T10:16:51.276Z,100245.06
2018-11-04T10:19:19.278Z,100240.64
2018-11-04T10:21:46.630Z,100238.58
2018-11-04T10:24:14.299Z,100233.45
2018-11-04T10:26:42.091Z,100235.84
2018-11-04T10:29:09.943Z,100228.17
2018-11-04T10:31:37.606Z,100222.19
2018-11-04T10:34:05.360Z,100216.83
2018-11-04T10:36:33.015Z,100224.01
2018-11-04T10:39:00.720Z,100205.81
2018-11-04T10:41:28.359Z,100208.81
2018-11-04T10:43:56.074Z,100203.72
2018-11-04T10:46:23.835Z,100199.11
2018-11-04T10:48:51.651Z,100191.51
2018-11-04T10:51:19.689Z,100184.81
2018-11-04T10:53:47.684Z,100184.25
2018-11-04T10:56:15.522Z,100185.06
2018-11-04T10:58:44.254Z,100179.24
2018-11-04T11:01:12.181Z,100173.75
2018-11-04T11:03:40.051Z,100178.59
2018-11-04T11:06:08.300Z,100172.21
2018-11-04T11:08:36.026Z,100171.12
2018-11-04T11:11:04.352Z,100165.31
2018-11-04T11:13:32.030Z,100165.17
2018-11-04T11:15:59.687Z,100161.45
2018-11-04T11:18:27.658Z,100153.30
2018-11-04T11:20:55.488Z,100147.79
2018-11-04T11:23:23.350Z,100143.63
2018-11-04T11:25:51.143Z,100143.95
2018-11-04T11:28:18.822Z,100141.94
2018-11-04T11:30:46.590Z,100144.22
2018-11-04T11:33:14.351Z,100143.22
2018-11-04T11:35:42.034Z,100138.18
2018-11-04T11:38:09.640Z,100129.13
2018-11-04T11:40:37.316Z,100133.40
2018-11-04T11:43:04.999Z,100123.59
2018-11-04T11:45:33.661Z,100121.19
2018-11-04T11:48:01.557Z,100116.42
2018-11-04T11:50:29.259Z,100119.16
2018-11-04T11:52:56.914Z,100120.18
2018-11-04T11:55:24.797Z,100117.31
2018-11-04T11:57:52.891Z,100119.86
2018-11-04T12:00:20.698Z,100114.48
2018-11-04T12:02:48.398Z,100121.27
2018-11-04T12:05:16.134Z,100108.21
2018-11-04T12:07:44.238Z,100108.39
2018-11-04T12:10:12.782Z,100109.33
2018-11-04T12:12:40.615Z,100104.08
2018-11-04T12:15:09.639Z,100086.14
2018-11-04T12:17:37.374Z,100087.06
2018-11-04T12:20:07.641Z,100086.62
2018-11-04T12:22:36.284Z,100085.59
2018-11-04T12:25:04.892Z,100086.58
2018-11-04T12:27:32.560Z,100081.34
2018-11-04T12:30:00.391Z,100081.00
2018-11-04T12:32:28.086Z,100077.40
2018-11-04T12:34:55.780Z,100065.16
2018-11-04T12:37:23.460Z,100060.83
2018-11-04T12:39:51.148Z,100062.02
2018-11-04T12:42:18.782Z,100065.27
2018-11-04T12:44:46.463Z,100065.89
2018-11-04T12:47:14.278Z,100071.70
2018-11-04T12:49:42.037Z,100065.34
2018-11-04T12:52:09.757Z,100071.82
2018-11-04T12:54:37.493Z,100066.88
2018-11-04T12:57:05.474Z,100062.59
2018-11-04T12:59:33.102Z,100057.72
2018-11-04T13:02:00.892Z,100058.44
2018-11-04T13:04:28.525Z,100062.08
2018-11-04T13:06:56.194Z,100056.58
2018-11-04T13:09:24.178Z,100050.23
2018-11-04T13:11:51.848Z,100048.16
2018-11-04T13:14:19.538Z,100040.27
2018-11-04T13:16:47.165Z,100041.24
2018-11-04T13:19:14.900Z,100044.52
2018-11-04T13:21:42.573Z,100041.16
2018-11-04T13:24:10.291Z,100042.30
2018-11-04T13:26:38.117Z,100039.05
2018-11-04T13:29:06.345Z,100033.41
2018-11-04T13:31:33.985Z,100026.06
2018-11-04T13:34:01.711Z,100024.77
2018-11-04T13:36:29.459Z,100019.77
2018-11-04T13:38:57.259Z,100024.35
2018-11-04T13:41:24.933Z,100019.22
2018-11-04T13:43:52.786Z,100008.77
2018-11-04T13:46:20.685Z,100019.83
2018-11-04T13:48:48.389Z,100017.11
2018-11-04T13:51:16.120Z,100027.16
2018-11-04T13:53:43.693Z,100023.46
2018-11-04T13:56:11.432Z,100022.84
2018-11-04T13:58:39.131Z,100026.92
2018-11-04T14:01:06.936Z,100025.38
2018-11-04T14:03:34.615Z,100022.22
2018-11-04T14:06:02.231Z,100014.59
2018-11-04T14:08:29.839Z,100014.73
2018-11-04T14:10:57.509Z,100009.34
2018-11-04T14:13:25.217Z,100003.45
2018-11-04T14:15:52.789Z,100008.77
2018-11-04T14:18:20.446Z,100005.03
2018-11-04T14:20:48.039Z,100002.05
2018-11-04T14:23:15.656Z,100004.80
2018-11-04T14:25:43.336Z,100002.33
2018-11-04T14:28:10.974Z,100003.99
2018-11-04T14:30:38.602Z,99993.13
2018-11-04T14:33:06.247Z,99988.20
2018-11-04T14:35:33.892Z,99986.50
2018-11-04T14:38:01.613Z,99992.92
2018-11-04T14:40:35.963Z,99992.78
2018-11-04T14:43:04.137Z,99987.25
2018-11-04T14:45:31.912Z,99981.36
2018-11-04T14:47:59.483Z,99976.64
2018-11-04T14:50:27.099Z,99981.73
2018-11-04T14:52:54.887Z,99984.98
2018-11-04T14:55:22.597Z,99983.42
2018-11-04T14:57:50.275Z,99979.89
2018-11-04T15:00:18.091Z,99974.05
2018-11-04T15:02:45.873Z,99968.13
2018-11-04T15:05:13.637Z,99962.86
2018-11-04T15:07:43.391Z,99962.26
2018-11-04T15:10:13.631Z,99968.02
2018-11-04T15:12:42.957Z,99967.80
2018-11-04T15:15:13.879Z,99963.49
2018-11-04T15:17:43.542Z,99969.70
2018-11-04T15:20:13.240Z,99973.84
2018-11-04T15:22:49.047Z,99969.59
2018-11-04T15:25:17.903Z,99962.39
2018-11-04T15:27:46.083Z,99954.55
2018-11-04T15:30:13.835Z,99951.07
2018-11-04T15:32:42.125Z,99951.45
2018-11-04T15:35:10.300Z,99950.01
2018-11-04T15:37:38.224Z,99952.23
2018-11-04T15:40:08.584Z,99956.88
2018-11-04T15:42:36.317Z,99957.31
2018-11-04T15:45:05.062Z,99955.79
2018-11-04T15:47:33.696Z,99951.56
2018-11-04T15:50:01.332Z,99951.04
2018-11-04T15:52:29.114Z,99950.98
2018-11-04T15:54:56.812Z,99949.48
2018-11-04T15:57:24.614Z,99947.13
2018-11-04T15:59:52.353Z,99944.79
2018-11-04T16:02:20.137Z,99949.00
2018-11-04T16:04:47.778Z,99949.31
2018-11-04T16:07:15.558Z,99949.00
2018-11-04T16:09:43.292Z,99944.59
2018-11-04T16:12:10.936Z,99941.09
2018-11-04T16:14:39.119Z,99932.30
2018-11-04T16:17:06.806Z,99938.09
2018-11-04T16:19:34.632Z,99947.81
2018-11-04T16:22:02.259Z,99945.66
2018-11-04T16:24:30.391Z,99934.98
2018-11-04T16:26:58.378Z,99925.34
2018-11-04T16:29:26.178Z,99923.98
2018-11-04T16:31:53.899Z,99931.30
2018-11-04T16:34:21.657Z,99940.06
2018-11-04T16:36:49.467Z,99936.30
2018-11-04T16:39:17.924Z,99928.59
2018-11-04T16:41:45.642Z,99939.34
2018-11-04T16:44:13.511Z,99928.35
2018-11-04T16:46:41.864Z,99924.91
2018-11-04T16:49:09.590Z,99932.03
2018-11-04T16:51:38.141Z,99935.75
2018-11-04T16:54:06.349Z,99938.54
2018-11-04T16:56:34.048Z,99935.55
2018-11-04T16:59:01.964Z,99932.91
2018-11-04T17:01:29.855Z,99925.46
2018-11-04T17:03:57.759Z,99924.80
2018-11-04T17:06:25.545Z,99928.66
2018-11-04T17:08:53.277Z,99934.09
2018-11-04T17:11:20.958Z,99922.86
2018-11-04T17:13:48.655Z,99922.13
2018-11-04T17:16:16.383Z,99921.19
2018-11-04T17:18:44.107Z,99924.00
2018-11-04T17:21:12.593Z,99921.95
2018-11-04T17:23:40.567Z,99912.80
2018-11-04T17:26:08.414Z,99907.99
2018-11-04T17:28:36.167Z,99906.24
2018-11-04T17:31:04.349Z,99904.32
2018-11-04T17:33:32.030Z,99904.75
2018-11-04T17:35:59.679Z,99893.42
2018-11-04T17:38:27.317Z,99895.74
2018-11-04T17:40:55.239Z,99897.76
2018-11-04T17:43:23.627Z,99889.28
2018-11-04T17:45:51.330Z,99881.59
2018-11-04T17:48:19.467Z,99891.44
2018-11-04T17:50:47.039Z,99887.37
2018-11-04T17:53:14.717Z,99875.59
2018-11-04T18:00:18.572Z,99872.75
2018-11-04T18:02:46.527Z,99873.97
2018-11-04T18:05:14.379Z,99873.38
2018-11-04T18:07:42.683Z,99862.84
2018-11-04T18:10:11.442Z,99867.29
2018-11-04T18:12:39.143Z,99868.55
2018-11-04T18:15:08.152Z,99867.22
2018-11-04T18:17:35.833Z,99872.58
2018-11-04T18:20:03.759Z,99877.38
2018-11-04T18:22:31.414Z,99874.42
2018-11-04T18:24:59.097Z,99882.87
2018-11-04T18:27:27.230Z,99886.10
2018-11-04T18:29:55.194Z,99888.84
2018-11-04T18:32:22.948Z,99883.75
2018-11-04T18:34:50.664Z,99883.45
2018-11-04T18:37:18.513Z,99883.41
2018-11-04T18:39:46.182Z,99874.52
2018-11-04T18:42:13.813Z,99882.27
2018-11-04T18:44:41.614Z,99882.53
2018-11-04T18:47:09.190Z,99877.97
2018-11-04T18:49:36.847Z,99883.27
2018-11-04T18:52:05.168Z,99880.47
2018-11-04T18:54:32.913Z,99873.89
2018-11-04T18:57:00.567Z,99873.16
2018-11-04T18:59:28.193Z,99872.22
2018-11-04T19:01:55.963Z,99871.89
2018-11-04T19:04:23.643Z,99873.22
2018-11-04T19:06:51.467Z,99880.31
2018-11-04T19:09:21.522Z,99867.34
2018-11-04T19:11:49.398Z,99872.83
2018-11-04T19:14:17.075Z,99871.73
2018-11-04T19:16:44.839Z,99870.55
2018-11-04T19:19:12.529Z,99872.86
2018-11-04T19:21:40.197Z,99874.48
2018-11-04T19:24:08.275Z,99879.06
2018-11-04T19:26:35.987Z,99876.12
2018-11-04T19:29:03.765Z,99871.67
2018-11-04T19:31:31.707Z,99866.58
2018-11-04T19:33:59.360Z,99860.55
2018-11-04T19:36:26.976Z,99863.98
2018-11-04T19:38:54.687Z,99857.73
2018-11-04T19:41:22.366Z,99856.98
2018-11-04T19:43:50.119Z,99854.96
2018-11-04T19:46:17.918Z,99858.44
2018-11-04T19:48:45.887Z,99863.80
2018-11-04T19:51:13.744Z,99860.19
2018-11-04T19:53:41.338Z,99861.34
2018-11-04T19:56:09.173Z,99857.52
2018-11-04T19:58:36.919Z,99858.91
2018-11-04T20:01:05.564Z,99863.49
2018-11-04T20:03:33.225Z,99859.40
2018-11-04T20:06:01.944Z,99865.16
2018-11-04T20:08:29.496Z,99859.04
2018-11-04T20:10:57.194Z,99863.05
2018-11-04T20:13:30.785Z,99870.07
2018-11-04T20:15:58.368Z,99863.04
2018-11-04T20:18:31.981Z,99867.73
2018-11-04T20:20:59.980Z,99860.44
2018-11-04T20:23:27.791Z,99859.18
2018-11-04T20:25:59.636Z,99847.88
2018-11-04T20:28:27.430Z,99843.92
2018-11-04T20:30:55.356Z,99847.26
2018-11-04T20:33:23.224Z,99840.73
2018-11-04T20:35:50.911Z,99842.23
2018-11-04T20:38:21.074Z,99849.40
2018-11-04T20:40:54.701Z,99840.45
2018-11-04T20:43:22.366Z,99836.30
2018-11-04T20:45:50.595Z,99841.37
2018-11-04T20:48:23.976Z,99841.50
2018-11-04T20:50:57.370Z,99836.30
2018-11-04T20:53:24.994Z,99837.55
2018-11-04T20:55:58.565Z,99833.04
2018-11-04T20:58:26.215Z,99828.73
2018-11-04T21:00:53.901Z,99833.52
2018-11-04T21:03:21.893Z,99827.98
2018-11-04T21:05:50.550Z,99827.35
2018-11-04T21:08:18.226Z,99823.34
2018-11-04T21:10:45.954Z,99814.52
2018-11-04T21:13:13.699Z,99821.27
2018-11-04T21:15:42.049Z,99824.52
2018-11-04T21:18:09.854Z,99815.91
2018-11-04T21:20:37.637Z,99802.97
2018-11-04T21:23:05.270Z,99810.45
2018-11-04T21:25:33.246Z,99808.56
2018-11-04T21:28:00.697Z,99804.25
2018-11-04T21:30:28.900Z,99803.73
2018-11-04T21:32:56.592Z,99804.86
2018-11-04T21:35:24.830Z,99799.30
2018-11-04T21:37:52.563Z,99782.44
2018-11-04T21:40:20.369Z,99778.55
2018-11-04T21:42:48.068Z,99783.88
2018-11-04T21:45:15.682Z,99784.22
2018-11-04T21:47:43.788Z,99785.48
2018-11-04T21:50:11.817Z,99782.97
2018-11-04T21:52:39.660Z,99780.21
2018-11-04T21:55:09.912Z,99770.09
2018-11-04T21:57:37.882Z,99776.27
2018-11-04T22:00:08.135Z,99777.11
2018-11-04T22:02:35.991Z,99773.58
2018-11-04T22:05:03.744Z,99777.70
2018-11-04T22:07:31.547Z,99778.89
2018-11-04T22:09:59.171Z,99779.66
2018-11-04T22:12:26.877Z,99771.50
2018-11-04T22:14:54.509Z,99766.42
2018-11-04T22:17:22.230Z,99783.55
2018-11-04T22:19:49.917Z,99785.56
2018-11-04T22:22:17.762Z,99789.42
2018-11-04T22:24:45.391Z,99780.78
2018-11-04T22:27:13.223Z,99780.08
2018-11-04T22:29:47.782Z,99773.36
2018-11-04T22:32:15.563Z,99780.84
2018-11-04T22:34:43.237Z,99778.92
2018-11-04T22:37:10.931Z,99784.31
2018-11-04T22:39:38.597Z,99784.02
2018-11-04T22:42:06.428Z,99780.91
2018-11-04T22:44:34.161Z,99777.44
2018-11-04T22:47:01.783Z,99765.84
2018-11-04T22:49:29.413Z,99754.00
2018-11-04T22:51:57.097Z,99749.63
2018-11-04T22:54:24.788Z,99745.88
2018-11-04T22:56:52.443Z,99748.19
2018-11-04T22:59:20.137Z,99762.98
2018-11-04T23:01:47.913Z,99763.76
2018-11-04T23:04:15.742Z,99754.73
2018-11-04T23:06:43.361Z,99743.14
2018-11-04T23:09:11.427Z,99737.03
2018-11-04T23:11:39.326Z,99738.12
2018-11-04T23:14:06.966Z,99743.31
2018-11-04T23:16:34.621Z,99740.88
2018-11-04T23:19:02.251Z,99732.30
2018-11-04T23:21:29.888Z,99739.44
2018-11-04T23:23:57.655Z,99727.83
2018-11-04T23:26:25.408Z,99731.70
2018-11-04T23:28:53.082Z,99732.97
2018-11-04T23:31:20.796Z,99743.81
2018-11-04T23:33:48.568Z,99740.49
2018-11-04T23:36:16.287Z,99736.04
2018-11-04T23:38:43.953Z,99742.42
2018-11-04T23:41:11.622Z,99732.16
2018-11-04T23:43:39.413Z,99734.70
2018-11-04T23:46:07.102Z,99733.66
2018-11-04T23:48:34.782Z,99736.29
2018-11-04T23:51:02.462Z,99722.36
2018-11-04T23:53:30.084Z,99727.37
2018-11-04T23:55:57.759Z,99718.84
2018-11-04T23:58:25.441Z,99717.66
